Fukushima, Japan

11:44 AM JST on October 22, 2014 (GMT +0900)
Fukushima | Change Station
CLOSE
Current Station
Airport
Location: Fukushima,
Elevation: 1220 ft
Nearby Weather Stations

Elev 1220 ft 37.23 °N, 140.43 °E | Updated 44 minutes ago

Light Rain Showers
Light Showers Rain Mist
54 °F
Feels Like 54 °F
N
5
Wind Variable Wind from NNE

Today
High -- | Low -- °F
--% Chance of Precip.
Yesterday
High -- | Low -- °F
Precip. -- in
5:52 AM 4:52 PM
Waning Crescent, 3% visible
Pressure 29.95 in
Visibility 3.1 miles
Clouds Few 300 ft
Scattered Clouds 1000 ft
Mostly Cloudy 2000 ft
Dew Point 54 °F
Humidity 100%
Rainfall 0.00 in
Snow Depth Not available.
UV 3 out of 12
Pollen Not available.
Air Quality Not available.
Flu Activity Not available.
METAR RJSF 220200Z 03004KT 5000 -SHRA BR FEW003 SCT010 BKN020 12/12 Q1014

More Conditions Fewer Conditions

Pressure 29.95 in
Visibility 3.1 miles
Clouds Few 300 ft
Scattered Clouds 1000 ft
Mostly Cloudy 2000 ft
Dew Point 54 °F
Humidity 100%
Rainfall 0.00 in
Snow Depth Not available.
UV 3 out of 12
Pollen Not available.
Air Quality Not available.
Flu Activity Not available.
METAR RJSF 220200Z 03004KT 5000 -SHRA BR FEW003 SCT010 BKN020 12/12 Q1014

More Conditions Fewer Conditions

10-Day Weather Forecast

Almanac

Astronomy

Oct. 22, 2014 Rise Set
Actual Time 5:52 AM JST 4:52 PM JST
Civil Twilight 5:25 AM JST 5:18 PM JST
Nautical Twilight 4:55 AM JST 5:49 PM JST
Astronomical Twilight 4:24 AM JST 6:19 PM JST
Moon 3:59 AM JST 3:56 PM JST
Length of Visible Light 11h 52m
Length of Day
10h 59m
Tomorrow will be 2m 16s shorter.
Waning Crescent, 3% of the Moon is Illuminated
Oct 21
Waning Crescent
Oct 23
New
Oct 30
First Quarter
Nov 6
Full
Nov 14
Last Quarter

Yesterday's Extremes

Country Highs Country Lows

Community

WunderPhotos

Upload Photos

1,763,862 photos uploaded!

Nearby

Snow Depth

Not available.

Earthquake Activity

City Distance Mag. Time & Date
No recent earthquake activity has been reported nearby.
Minimum magnitude displayed is 2.5.

Coastal Water Temperatures

Place Temperature
No Stations Reporting

Nearby Weather Stations